メインページ
METAR-TAF:

METAR-TAF

空港 :

Buffalo Narrows, マニトバ州, カナダ

緯度: 55-50N, 経度: 108-27W, 海抜: 434m

現時点の気象観測

当レポートは33分前の09:02(UTC)に作成
の風 13kt、最大19ktの突風を伴う
気温 -8°C
湿度 79%
気圧 1018 hPa
視程: 14.5km
高度1800ftの曇り
小雪

METAR: CYVT 140902Z AUTO 35013G19KT 9SM -SN OVC018 M08/M11 A3006 RMK SLP214

時間: 03:35 (09:35 UTC)

予報

当レポートは8時間57分前の00:38(UTC)に作成
予報は14日の 01時(UTC)から 14日の 04時(UTC)まで有効
南/南西の風 5kt
視程: 10km
高度2000ftの雲は散在している
高度6000ftの曇り
14日の 01時(UTC)から 14日の 04時(UTC)まで一時的に
視程: 6.4km
高度1500ftの曇り
小雪
14日の 01時(UTC)から 14日の 03時(UTC)まで徐々に
西/北西の風 5kt

TAF: CYVT 140038Z 1401/1404 20005KT P6SM SCT020 OVC060 TEMPO 1401/1404 4SM -SN OVC015 BECMG 1401/1403 29005KT RMK FCST BASED ON AUTO OBS. NXT FCST WILL BE ISSUED AT 141345Z

4,000以上の空港の気象観測と天気予報(METAR報とTAF報)

利用可能な観測所は地図上に黄色い丸と赤い丸で示す。

丸の上にカーソルを重ねると観測所名を参照できる。

次にクリックすると気象観測と天気予報を参照できる。

マップの切り替え:黒色「×」印の緑ボタンをクリックして拡大、「-」印の緑ボタンをクリックして縮小、緑色の三角印をクリックして隣りの地図に切り替え


METAR-TAF: